Time;durP1;ratioP1;P1;durP2;ratioP2;P2;SDS_P1;SDS_P2;PMS_P1;PMS_P2;Temp;Humidity;BMP_temperature;BMP_pressure;BME280_temperature;BME280_humidity;BME280_pressure;Samples;Min_cycle;Max_cycle;Signal;HPM_P1;HPM_P2
2023/10/11 00:02:56;;;;;;;14.48;4.10;;;;;;;13.68;63.32;93389.66;2072440;69;20187;-74
2023/10/11 00:05:22;;;;;;;14.77;3.83;;;;;;;13.67;62.83;93383.25;2072008;69;20172;-72
2023/10/11 00:07:48;;;;;;;12.68;3.35;;;;;;;13.71;62.98;93391.28;2072477;69;20160;-75
2023/10/11 00:10:22;;;;;;;16.02;3.63;;;;;;;13.51;63.51;93390.75;2072594;69;20236;-75
2023/10/11 00:12:50;;;;;;;13.48;3.67;;;;;;;13.68;62.55;93393.22;2072444;69;20160;-75
2023/10/11 00:15:18;;;;;;;16.88;3.90;;;;;;;13.70;62.86;93390.53;2072410;69;20159;-75
2023/10/11 00:17:46;;;;;;;11.50;3.55;;;;;;;13.71;62.30;93389.16;2072255;69;20152;-76
2023/10/11 00:20:31;;;;;;;13.65;3.35;;;;;;;13.46;63.47;93381.28;2069032;69;20155;-75
2023/10/11 00:22:57;;;;;;;13.60;3.53;;;;;;;13.69;61.00;93377.72;2072334;69;20152;-76
2023/10/11 00:25:27;;;;;;;16.85;3.38;;;;;;;13.84;60.39;93373.66;2068803;69;20151;-75
2023/10/11 00:27:55;;;;;;;11.75;3.53;;;;;;;13.66;61.81;93381.06;2071934;69;20210;-76
2023/10/11 00:30:22;;;;;;;8.60;3.40;;;;;;;13.63;62.26;93377.38;2068749;69;20224;-75
2023/10/11 00:32:47;;;;;;;16.73;3.95;;;;;;;13.51;62.26;93365.31;2072302;69;20511;-76
2023/10/11 00:35:20;;;;;;;12.25;3.60;;;;;;;13.60;62.30;93375.75;2068890;69;20501;-75
2023/10/11 00:37:51;;;;;;;9.85;3.08;;;;;;;13.54;62.17;93364.09;2072301;69;20152;-76
2023/10/11 00:40:28;;;;;;;;;;;;;;;13.60;62.30;93367.28;2069051;69;20220;-75
2023/10/11 00:42:56;;;;;;;14.80;4.07;;;;;;;13.53;62.36;93364.72;2068771;69;20049;-76
2023/10/11 00:45:25;;;;;;;13.63;3.67;;;;;;;13.53;62.56;93356.22;2068881;69;20176;-75
2023/10/11 00:47:55;;;;;;;10.88;3.45;;;;;;;13.40;62.87;93360.41;2068918;69;20226;-75
2023/10/11 00:50:22;;;;;;;12.82;3.83;;;;;;;13.42;63.06;93347.13;2072017;69;20217;-74
2023/10/11 00:52:50;;;;;;;10.32;3.33;;;;;;;13.40;63.28;93349.09;2069048;69;20135;-75
2023/10/11 00:55:22;;;;;;;12.15;3.45;;;;;;;13.17;63.38;93355.44;2069136;69;20164;-75
2023/10/11 00:57:49;;;;;;;13.43;3.60;;;;;;;13.21;63.23;93358.50;2072884;69;20227;-74
2023/10/11 01:00:17;;;;;;;15.05;3.30;;;;;;;13.24;63.30;93354.50;2072699;69;20147;-74
2023/10/11 01:02:46;;;;;;;9.65;3.40;;;;;;;13.19;63.60;93344.25;2072463;69;20143;-75
2023/10/11 01:05:13;;;;;;;13.55;3.55;;;;;;;13.28;63.32;93351.16;2072446;69;20141;-73
2023/10/11 01:07:41;;;;;;;11.32;3.30;;;;;;;13.13;63.51;93338.22;2069135;69;20152;-74
2023/10/11 01:10:08;;;;;;;11.18;3.40;;;;;;;13.14;62.94;93348.19;2068877;69;20696;-75
2023/10/11 01:12:34;;;;;;;13.60;3.67;;;;;;;13.13;63.23;93343.88;2072359;69;20584;-74
2023/10/11 01:15:01;;;;;;;14.63;3.47;;;;;;;13.10;63.43;93353.56;2069034;69;20634;-77
2023/10/11 01:17:31;;;;;;;15.93;3.15;;;;;;;13.07;63.61;93347.06;2069119;69;20156;-76
2023/10/11 01:20:00;;;;;;;11.68;3.40;;;;;;;13.05;63.28;93335.63;2063626;69;20157;-76
2023/10/11 01:22:27;;;;;;;11.43;3.70;;;;;;;13.17;63.08;93346.97;2069051;69;20163;-75
2023/10/11 01:24:55;;;;;;;9.55;2.75;;;;;;;13.09;63.42;93346.44;2069002;69;20145;-76
2023/10/11 01:27:30;;;;;;;8.82;3.28;;;;;;;13.17;62.74;93344.88;2068867;69;20580;-76
2023/10/11 01:29:58;;;;;;;10.32;2.92;;;;;;;13.17;61.99;93344.88;2068992;69;20588;-75
2023/10/11 01:32:24;;;;;;;10.75;2.90;;;;;;;13.21;61.92;93342.28;2068926;69;20171;-74
2023/10/11 01:34:50;;;;;;;13.30;3.67;;;;;;;13.11;62.61;93347.31;2069165;69;20167;-74
2023/10/11 01:37:17;;;;;;;11.63;3.20;;;;;;;12.96;63.30;93339.31;2069372;69;20221;-74
2023/10/11 01:39:43;;;;;;;15.38;3.58;;;;;;;12.98;63.07;93339.44;2072231;69;20197;-74
2023/10/11 01:42:09;;;;;;;11.18;3.00;;;;;;;13.03;62.31;93340.44;2068854;69;20619;-76
2023/10/11 01:44:36;;;;;;;10.98;3.15;;;;;;;12.87;63.55;93329.56;2069045;69;20593;-75
2023/10/11 01:47:01;;;;;;;10.80;3.10;;;;;;;12.86;63.47;93339.41;2068974;69;20144;-74
2023/10/11 01:49:27;;;;;;;9.07;3.10;;;;;;;12.75;63.86;93334.50;2069256;69;20287;-74
2023/10/11 01:51:54;;;;;;;11.98;3.55;;;;;;;12.81;63.12;93334.84;2069104;69;20148;-75
2023/10/11 01:54:22;;;;;;;14.82;3.53;;;;;;;12.71;64.01;93325.75;2068807;69;20200;-74
2023/10/11 01:56:56;;;;;;;12.70;3.10;;;;;;;12.68;63.92;93330.53;2069090;69;20239;-75
2023/10/11 01:59:22;;;;;;;14.15;3.53;;;;;;;12.77;63.51;93322.56;2069123;69;20143;-74
2023/10/11 02:01:58;;;;;;;11.18;3.38;;;;;;;12.70;64.25;93327.84;2069024;69;20140;-74
2023/10/11 02:04:25;;;;;;;12.05;3.42;;;;;;;12.65;64.45;93339.50;2069047;69;20168;-74
2023/10/11 02:06:51;;;;;;;9.75;3.30;;;;;;;12.54;64.51;93328.91;2069016;69;20186;-74
2023/10/11 02:09:20;;;;;;;10.23;3.00;;;;;;;12.57;64.25;93338.97;2068749;69;20144;-74
2023/10/11 02:11:52;;;;;;;13.52;3.42;;;;;;;12.68;63.69;93335.44;2072296;69;20181;-74
2023/10/11 02:14:22;;;;;;;13.35;3.28;;;;;;;12.68;63.21;93329.78;2069199;69;20223;-73
2023/10/11 02:16:48;;;;;;;11.75;3.40;;;;;;;12.61;63.90;93322.28;2072568;69;20132;-73
2023/10/11 02:19:15;;;;;;;12.35;4.50;;;;;;;12.53;64.50;93341.53;2069276;69;20151;-73
2023/10/11 02:21:44;;;;;;;15.18;3.60;;;;;;;12.41;64.45;93330.19;2068972;69;20149;-75
2023/10/11 02:24:14;;;;;;;8.07;3.13;;;;;;;12.40;64.55;93323.09;2069090;69;20157;-74
2023/10/11 02:26:41;;;;;;;13.85;3.55;;;;;;;12.43;64.74;93336.00;2069239;69;20140;-74
2023/10/11 02:29:15;;;;;;;12.27;3.47;;;;;;;12.41;64.31;93333.75;2068663;69;20151;-75
2023/10/11 02:31:41;;;;;;;8.85;3.53;;;;;;;12.43;64.69;93333.91;2072188;69;20156;-74
2023/10/11 02:34:16;;;;;;;11.60;3.38;;;;;;;12.40;64.09;93332.28;2069108;69;20622;-74
2023/10/11 02:36:45;;;;;;;9.25;3.30;;;;;;;12.31;64.97;93338.75;2072409;69;20136;-74
2023/10/11 02:39:19;;;;;;;11.60;3.17;;;;;;;12.27;64.93;93335.66;2069259;69;20244;-75
2023/10/11 02:41:46;;;;;;;14.55;3.80;;;;;;;12.20;65.29;93337.38;2069134;69;20608;-75
2023/10/11 02:44:13;;;;;;;11.43;2.92;;;;;;;12.15;65.29;93337.72;2072385;69;20151;-74
2023/10/11 02:46:42;;;;;;;12.05;3.17;;;;;;;12.20;65.23;93333.81;2066516;69;20222;-74
2023/10/11 02:49:18;;;;;;;10.50;3.50;;;;;;;12.20;65.47;93334.56;2072443;69;20527;-75
2023/10/11 02:51:59;;;;;;;10.80;3.53;;;;;;;12.16;65.06;93333.56;2069123;69;20143;-75
2023/10/11 02:54:34;;;;;;;15.02;3.17;;;;;;;12.12;65.14;93330.47;2072378;69;20152;-75
2023/10/11 02:57:05;;;;;;;10.73;3.30;;;;;;;12.04;65.49;93344.03;2068868;69;20132;-75
2023/10/11 02:59:33;;;;;;;17.10;3.75;;;;;;;12.03;65.73;93339.75;2072369;69;20187;-75
2023/10/11 03:02:00;;;;;;;11.60;3.25;;;;;;;11.98;65.50;93340.81;2068959;69;20144;-75
2023/10/11 03:04:34;;;;;;;14.43;3.20;;;;;;;11.95;65.65;93346.31;2069171;69;20156;-74
2023/10/11 03:07:02;;;;;;;13.55;3.50;;;;;;;12.01;64.93;93337.53;2066469;69;20524;-75
2023/10/11 03:09:33;;;;;;;12.50;3.30;;;;;;;11.96;65.78;93335.78;2068982;69;20148;-75
2023/10/11 03:12:06;;;;;;;11.18;3.22;;;;;;;11.81;66.00;93331.25;2068961;69;20171;-74
2023/10/11 03:14:41;;;;;;;10.80;3.75;;;;;;;11.85;66.15;93337.19;2066028;69;20687;-74
2023/10/11 03:17:13;;;;;;;12.55;3.35;;;;;;;11.89;66.10;93333.91;2072235;69;20584;-74
2023/10/11 03:19:45;;;;;;;13.23;3.60;;;;;;;11.83;65.90;93333.50;2072274;69;20163;-74
2023/10/11 03:22:21;;;;;;;11.15;3.55;;;;;;;11.82;66.16;93337.63;2072214;69;20151;-75
2023/10/11 03:24:59;;;;;;;11.75;3.90;;;;;;;11.75;66.23;93347.03;2072497;69;20188;-75
2023/10/11 03:27:27;;;;;;;10.90;3.60;;;;;;;11.76;65.75;93335.16;2072227;69;20140;-76
2023/10/11 03:29:53;;;;;;;13.05;3.33;;;;;;;11.71;66.04;93341.88;2071958;69;20176;-75
2023/10/11 03:32:19;;;;;;;12.02;3.72;;;;;;;11.69;65.96;93345.31;2068649;69;20152;-77
2023/10/11 03:34:46;;;;;;;11.75;3.45;;;;;;;11.70;66.16;93341.13;2072262;69;20534;-75
2023/10/11 03:37:18;;;;;;;8.30;3.38;;;;;;;11.47;65.94;93320.50;2066047;69;20148;-76
2023/10/11 03:39:56;;;;;;;10.68;3.28;;;;;;;11.64;66.04;93342.81;2068830;69;20141;-75
2023/10/11 03:42:27;;;;;;;8.93;3.25;;;;;;;11.62;66.69;93345.50;2068683;69;20132;-74
2023/10/11 03:44:53;;;;;;;10.30;3.78;;;;;;;11.35;67.71;93345.78;2072256;69;20145;-75
2023/10/11 03:47:26;;;;;;;10.40;3.55;;;;;;;11.42;66.28;93339.22;2072066;69;20140;-73
2023/10/11 03:49:52;;;;;;;7.88;3.40;;;;;;;11.50;66.70;93347.47;2072066;69;20156;-73
2023/10/11 03:55:01;;;;;;;15.25;3.53;;;;;;;11.47;66.38;93338.16;2071992;69;20141;-73
2023/10/11 03:57:27;;;;;;;14.00;3.38;;;;;;;11.47;66.72;93338.16;2071775;69;20160;-73
2023/10/11 03:59:54;;;;;;;10.32;3.55;;;;;;;11.45;66.80;93335.19;2072094;69;20156;-73
2023/10/11 04:02:20;;;;;;;12.48;3.40;;;;;;;11.42;66.81;93336.41;2068906;69;20147;-74
2023/10/11 04:04:49;;;;;;;16.98;3.80;;;;;;;11.41;66.52;93335.69;2072056;69;20141;-73
2023/10/11 04:07:17;;;;;;;14.15;4.22;;;;;;;11.36;67.25;93327.53;2072024;69;20243;-73
2023/10/11 04:09:46;;;;;;;11.65;3.80;;;;;;;11.37;66.58;93331.84;2071969;69;20155;-74
2023/10/11 04:12:12;;;;;;;12.35;3.38;;;;;;;11.39;66.19;93320.69;2072078;69;20243;-74
2023/10/11 04:14:40;;;;;;;15.50;3.53;;;;;;;11.36;65.96;93322.66;2071975;69;20244;-74
2023/10/11 04:23:01;;;;;;;14.95;3.40;;;;;;;11.28;66.64;93322.09;2072798;69;20167;-74
2023/10/11 04:25:26;;;;;;;11.57;3.35;;;;;;;11.25;66.94;93328.19;2069318;69;20221;-73
2023/10/11 04:27:56;;;;;;;11.80;3.33;;;;;;;11.32;65.71;93332.91;2072521;69;20148;-74
2023/10/11 04:30:41;;;;;;;11.98;3.88;;;;;;;11.24;65.80;93338.00;2072250;69;20231;-73
2023/10/11 04:33:12;;;;;;;10.90;3.20;;;;;;;11.20;67.05;93341.25;2072336;69;20156;-74
2023/10/11 04:35:42;;;;;;;11.23;3.50;;;;;;;11.16;66.68;93340.97;2072187;69;20227;-76
2023/10/11 04:38:11;;;;;;;14.60;3.60;;;;;;;11.09;67.45;93339.84;2069155;69;20526;-76
2023/10/11 04:40:51;;;;;;;11.27;4.15;;;;;;;11.17;66.62;93340.38;2072577;69;20148;-75
2023/10/11 04:43:24;;;;;;;20.55;4.50;;;;;;;11.17;66.38;93337.56;2069062;69;20231;-76
2023/10/11 04:45:51;;;;;;;15.15;3.72;;;;;;;11.09;66.47;93334.19;2072434;69;20148;-76
2023/10/11 04:48:29;;;;;;;14.15;4.30;;;;;;;11.01;66.54;93339.28;2072577;69;20247;-76
2023/10/11 04:51:07;;;;;;;12.23;4.45;;;;;;;10.95;66.95;93344.50;2072507;69;20674;-75
2023/10/11 04:53:54;;;;;;;19.05;5.25;;;;;;;10.90;67.32;93346.28;2066367;69;20588;-76
2023/10/11 04:59:16;;;;;;;13.55;5.07;;;;;;;10.97;67.04;93352.34;2072335;69;20136;-76
2023/10/11 05:04:27;;;;;;;15.20;5.45;;;;;;;10.97;67.04;93332.63;2072566;69;20151;-75
2023/10/11 05:06:53;;;;;;;18.02;6.10;;;;;;;10.92;66.81;93337.97;2072732;69;20144;-76
2023/10/11 05:15:42;;;;;;;14.73;6.68;;;;;;;10.95;66.69;93344.50;2072832;69;20185;-75
2023/10/11 05:20:20;;;;;;;16.13;5.43;;;;;;;10.97;66.14;93349.53;2072694;69;20229;-76
2023/10/11 05:22:49;;;;;;;19.15;6.80;;;;;;;10.92;66.36;93352.06;2072392;69;20201;-76
2023/10/11 05:25:37;;;;;;;13.05;6.13;;;;;;;10.93;66.35;93355.59;2072648;69;20178;-75
2023/10/11 05:31:00;;;;;;;14.30;5.85;;;;;;;10.81;66.56;93366.00;2072858;69;20132;-75
2023/10/11 05:33:41;;;;;;;14.05;5.30;;;;;;;10.79;66.99;93360.25;2072434;69;20172;-74
2023/10/11 05:52:45;;;;;;;11.93;4.65;;;;;;;10.70;66.89;93375.81;2072269;69;20280;-74
2023/10/11 05:55:11;;;;;;;17.52;5.75;;;;;;;10.78;66.61;93373.59;2072350;69;20631;-75
2023/10/11 05:57:38;;;;;;;16.40;5.78;;;;;;;10.79;66.63;93382.78;2068921;69;20171;-75
2023/10/11 06:00:18;;;;;;;19.27;5.78;;;;;;;10.79;66.54;93360.97;2072248;69;20148;-75
2023/10/11 06:02:43;;;;;;;11.88;4.97;;;;;;;10.88;66.06;93370.75;2069352;69;20160;-75
2023/10/11 06:05:11;;;;;;;16.38;4.95;;;;;;;10.84;65.95;93367.63;2072160;69;20136;-74
2023/10/11 06:07:37;;;;;;;14.38;5.13;;;;;;;10.85;65.79;93372.66;2068917;69;20164;-75
2023/10/11 06:10:07;;;;;;;17.30;5.75;;;;;;;10.50;68.00;93392.03;2068700;69;20144;-76
2023/10/11 06:12:33;;;;;;;14.35;4.97;;;;;;;10.64;67.08;93393.03;2072120;69;20133;-77
2023/10/11 06:15:15;;;;;;;15.80;5.10;;;;;;;10.73;67.08;93383.09;2072162;69;20561;-76
2023/10/11 06:17:48;;;;;;;13.40;5.13;;;;;;;10.80;66.65;93384.97;2066609;69;20150;-76
2023/10/11 06:20:27;;;;;;;15.90;6.10;;;;;;;10.67;66.94;93391.09;2072245;69;20288;-76
2023/10/11 06:22:57;;;;;;;13.32;5.13;;;;;;;10.73;66.77;93394.34;2072183;69;20230;-76
2023/10/11 06:25:40;;;;;;;15.80;5.28;;;;;;;10.74;67.02;93398.66;2072267;69;20245;-75
2023/10/11 06:28:13;;;;;;;11.95;4.90;;;;;;;10.78;67.01;93403.84;2072146;69;20298;-75
2023/10/11 06:30:47;;;;;;;19.65;5.90;;;;;;;10.89;66.45;93397.56;2072134;69;20147;-76
2023/10/11 06:33:13;;;;;;;17.23;4.93;;;;;;;10.90;66.30;93399.03;2072197;69;20585;-75
2023/10/11 06:35:49;;;;;;;17.50;5.05;;;;;;;10.94;66.31;93402.16;2068765;69;20199;-73
2023/10/11 06:38:15;;;;;;;18.10;6.40;;;;;;;10.88;66.00;93399.66;2071967;69;20202;-74
2023/10/11 06:40:49;;;;;;;15.40;7.00;;;;;;;10.85;66.34;93391.66;2068638;69;20164;-77
2023/10/11 06:43:15;;;;;;;15.13;6.60;;;;;;;10.86;66.94;93405.16;2072004;69;20206;-77
2023/10/11 06:45:41;;;;;;;13.48;6.00;;;;;;;10.93;66.94;93392.22;2072129;69;20152;-75
2023/10/11 06:48:13;;;;;;;14.43;6.55;;;;;;;10.92;66.48;93402.03;2068637;69;20207;-76
2023/10/11 06:50:40;;;;;;;15.87;6.63;;;;;;;10.97;66.72;93403.03;2068656;69;20136;-74
2023/10/11 06:53:10;;;;;;;14.55;7.07;;;;;;;10.78;66.92;93407.38;2072008;69;20148;-76
2023/10/11 06:55:39;;;;;;;14.25;5.70;;;;;;;10.78;67.70;93412.28;2072239;69;20221;-74
2023/10/11 06:58:15;;;;;;;15.13;6.55;;;;;;;10.87;67.03;93406.63;2071816;69;20147;-75
2023/10/11 07:01:03;;;;;;;;;;;;;;;;;;;;;
2023/10/11 07:03:28;;;;;;;18.73;6.88;;;;;;;10.99;66.86;93406.00;2071983;69;20179;-76
2023/10/11 07:06:00;;;;;;;15.80;5.88;;;;;;;10.98;67.13;93398.88;2068789;69;20144;-73
2023/10/11 07:08:34;;;;;;;16.83;5.60;;;;;;;11.07;66.56;93395.28;2072379;69;20136;-73
2023/10/11 07:11:25;;;;;;;16.58;6.13;;;;;;;10.99;65.93;93398.28;2072645;69;20182;-75
2023/10/11 07:13:54;;;;;;;14.82;6.40;;;;;;;11.09;66.28;93392.63;2071665;69;20225;-74
2023/10/11 07:16:22;;;;;;;16.75;6.00;;;;;;;11.10;66.12;93385.66;2068806;69;20136;-74
2023/10/11 07:18:50;;;;;;;19.15;6.20;;;;;;;11.11;66.57;93389.94;2072153;69;20154;-74
2023/10/11 07:21:19;;;;;;;13.13;6.00;;;;;;;11.15;66.55;93393.06;2072180;69;20151;-74
2023/10/11 07:28:55;;;;;;;12.50;5.65;;;;;;;11.15;66.55;93402.25;2072075;69;20235;-76
2023/10/11 07:31:32;;;;;;;20.88;5.78;;;;;;;11.23;66.16;93396.44;2072252;69;20124;-74
2023/10/11 07:34:10;;;;;;;14.45;5.65;;;;;;;11.25;65.97;93398.66;2072061;69;20167;-74
2023/10/11 07:36:37;;;;;;;16.00;7.05;;;;;;;11.10;67.00;93397.66;2072273;69;20145;-75
2023/10/11 07:39:25;;;;;;;21.15;9.10;;;;;;;11.11;66.52;93393.50;2072198;69;20617;-78
2023/10/11 07:42:18;;;;;;;17.08;6.10;;;;;;;11.16;67.30;93397.34;2069453;69;20144;-78
2023/10/11 07:44:50;;;;;;;13.32;5.35;;;;;;;11.34;66.40;93390.16;2072242;69;20148;-78
2023/10/11 07:47:16;;;;;;;11.95;5.30;;;;;;;11.34;65.63;93395.06;2072164;69;20148;-78
2023/10/11 07:49:45;;;;;;;14.85;5.28;;;;;;;11.37;66.41;93386.13;2068733;69;20145;-78
2023/10/11 07:52:19;;;;;;;15.23;6.18;;;;;;;11.42;66.23;93384.34;2072221;69;20579;-74
2023/10/11 07:54:44;;;;;;;11.85;4.88;;;;;;;11.58;65.04;93364.94;2072624;69;20132;-74
2023/10/11 07:57:14;;;;;;;16.42;4.93;;;;;;;12.18;67.25;93376.75;2072505;69;20140;-74
2023/10/11 07:59:44;;;;;;;12.85;4.70;;;;;;;12.57;62.65;93367.97;2073031;69;20140;-75
2023/10/11 08:02:43;;;;;;;16.17;6.32;;;;;;;13.04;64.38;93365.25;2072651;69;20152;-74
2023/10/11 08:05:05;;;;;;;16.48;6.80;;;;;;;13.51;62.78;93375.88;2068654;69;20554;-76
2023/10/11 08:07:30;;;;;;;15.23;4.40;;;;;;;13.86;61.01;93367.38;2072591;69;20152;-74
2023/10/11 08:09:56;;;;;;;12.13;4.72;;;;;;;13.97;59.92;93363.78;2072628;69;20159;-74
2023/10/11 08:12:23;;;;;;;12.20;4.55;;;;;;;14.31;60.91;93362.22;2072618;69;20146;-75
2023/10/11 08:14:53;;;;;;;12.10;4.43;;;;;;;14.74;59.67;93361.81;2072669;69;20140;-74
2023/10/11 08:17:20;;;;;;;10.90;4.10;;;;;;;14.65;58.08;93354.97;2069249;69;20136;-74
2023/10/11 08:19:48;;;;;;;9.18;3.63;;;;;;;15.41;56.18;93350.56;2072424;69;20579;-75
2023/10/11 08:22:15;;;;;;;9.27;3.25;;;;;;;15.94;55.92;93350.50;2072446;69;20140;-73
2023/10/11 08:24:47;;;;;;;11.05;3.30;;;;;;;16.18;56.18;93351.75;2069544;69;20735;-74
2023/10/11 08:27:16;;;;;;;10.55;3.63;;;;;;;16.66;55.21;93347.00;2072595;69;20469;-74
2023/10/11 08:29:45;;;;;;;9.35;3.28;;;;;;;17.17;53.63;93354.41;2072608;69;20166;-74
2023/10/11 08:32:15;;;;;;;12.32;3.72;;;;;;;17.26;52.76;93359.81;2072554;69;20148;-74
2023/10/11 08:34:46;;;;;;;18.25;5.45;;;;;;;17.59;50.61;93357.72;2072742;69;20136;-77
2023/10/11 08:37:12;;;;;;;8.90;4.35;;;;;;;18.00;49.79;93346.06;2069331;69;20132;-77
2023/10/11 08:39:46;;;;;;;9.02;3.63;;;;;;;18.46;48.99;93347.34;2072889;69;20521;-78
2023/10/11 08:42:15;;;;;;;13.15;4.60;;;;;;;18.29;48.92;93343.06;2066764;69;20529;-77
2023/10/11 08:44:49;;;;;;;8.52;3.40;;;;;;;18.92;47.26;93338.50;2068979;69;20152;-79
2023/10/11 08:47:19;;;;;;;9.07;3.05;;;;;;;19.26;46.40;93350.53;2069009;69;20144;-76
2023/10/11 08:49:48;;;;;;;10.05;2.83;;;;;;;19.30;45.36;93353.56;2072540;69;20136;-74
2023/10/11 08:52:29;;;;;;;9.18;2.40;;;;;;;19.53;43.39;93341.59;2066538;69;20152;-75
2023/10/11 08:54:58;;;;;;;6.80;2.50;;;;;;;20.17;43.21;93344.66;2072505;69;20147;-74
2023/10/11 08:57:25;;;;;;;7.60;2.38;;;;;;;20.62;43.52;93336.91;2072318;69;20236;-76
2023/10/11 08:59:57;;;;;;;9.70;3.80;;;;;;;20.52;43.20;93331.56;2072476;69;20214;-75
2023/10/11 09:02:27;;;;;;;7.68;3.20;;;;;;;20.72;42.51;93342.97;2072838;69;20142;-74
2023/10/11 09:05:28;;;;;;;20.15;8.40;;;;;;;20.91;41.82;93335.72;2072506;69;20155;-75
2023/10/11 09:07:55;;;;;;;17.27;7.90;;;;;;;21.16;41.18;93334.34;2071876;69;20136;-73
2023/10/11 09:10:28;;;;;;;17.65;6.97;;;;;;;20.92;41.86;93337.91;2072088;69;20167;-75
2023/10/11 09:12:56;;;;;;;9.35;3.30;;;;;;;21.11;40.69;93333.50;2075682;69;20132;-77
2023/10/11 09:15:42;;;;;;;9.40;2.60;;;;;;;21.31;40.35;93330.59;2075754;69;20612;-74
2023/10/11 09:18:14;;;;;;;5.95;2.70;;;;;;;21.38;40.60;93332.22;2075943;69;20596;-76
2023/10/11 09:20:56;;;;;;;11.63;2.85;;;;;;;22.28;38.96;93318.34;2075875;69;20151;-77
2023/10/11 09:23:37;;;;;;;12.07;3.40;;;;;;;23.12;37.46;93325.50;2075775;69;20205;-75
2023/10/11 09:26:05;;;;;;;8.10;3.15;;;;;;;22.41;38.51;93322.28;2075765;69;20159;-77
2023/10/11 09:28:40;;;;;;;8.82;2.47;;;;;;;23.04;35.53;93315.28;2075572;69;20175;-75
2023/10/11 09:31:10;;;;;;;8.15;2.60;;;;;;;23.45;35.65;93321.25;2075739;69;20196;-76
2023/10/11 09:33:51;;;;;;;8.70;2.15;;;;;;;24.25;35.24;93326.56;2075816;69;20144;-77
2023/10/11 09:36:20;;;;;;;9.32;2.38;;;;;;;24.72;35.05;93316.66;2075794;69;20233;-75
2023/10/11 09:38:54;;;;;;;8.60;2.42;;;;;;;24.61;34.56;93317.19;2075890;69;20198;-75
2023/10/11 09:41:23;;;;;;;7.88;2.42;;;;;;;24.67;34.02;93318.03;2075634;69;20164;-76
2023/10/11 09:43:49;;;;;;;11.85;2.50;;;;;;;24.87;33.11;93316.91;2075552;69;20152;-74
2023/10/11 09:46:17;;;;;;;9.10;2.80;;;;;;;25.00;33.40;93312.81;2071105;69;20634;-74
2023/10/11 09:48:43;;;;;;;9.73;2.80;;;;;;;25.89;32.89;93319.25;2068989;69;20148;-74
2023/10/11 09:51:13;;;;;;;9.82;3.97;;;;;;;26.67;31.63;93311.53;2063301;69;20141;-74
2023/10/11 09:53:49;;;;;;;10.20;2.20;;;;;;;26.45;32.38;93315.63;2066205;69;20152;-75
2023/10/11 09:56:39;;;;;;;7.85;2.17;;;;;;;27.11;32.27;93319.91;2072345;69;20183;-74
2023/10/11 09:59:22;;;;;;;9.05;2.20;;;;;;;27.02;31.42;93307.50;2072345;69;20156;-77
2023/10/11 10:02:14;;;;;;;6.22;2.30;;;;;;;27.80;28.76;93313.91;2072539;69;20136;-74
2023/10/11 10:04:51;;;;;;;11.85;2.33;;;;;;;26.78;30.85;93308.03;2072314;69;20156;-74
2023/10/11 10:07:33;;;;;;;7.72;1.92;;;;;;;27.32;28.56;93309.97;2068935;69;20170;-75
2023/10/11 10:10:00;;;;;;;9.77;2.22;;;;;;;27.89;27.41;93306.72;2072327;69;20164;-74
2023/10/11 10:12:34;;;;;;;8.25;2.42;;;;;;;28.84;29.07;93303.47;2072358;69;20140;-73
2023/10/11 10:15:20;;;;;;;7.43;2.30;;;;;;;29.01;28.97;93297.75;2072387;69;20148;-72
2023/10/11 10:18:00;;;;;;;6.72;2.60;;;;;;;29.46;27.66;93298.47;2072455;69;20149;-74
2023/10/11 10:20:32;;;;;;;8.90;2.45;;;;;;;31.17;26.85;93284.78;2072481;69;20148;-73
2023/10/11 10:23:16;;;;;;;6.90;2.33;;;;;;;31.04;27.32;93287.03;2072493;69;20156;-75
2023/10/11 10:25:46;;;;;;;9.98;2.28;;;;;;;30.48;27.48;93285.91;2072504;69;20128;-73
2023/10/11 10:28:37;;;;;;;7.03;2.30;;;;;;;30.91;26.92;93294.41;2072385;69;20179;-73
2023/10/11 10:31:17;;;;;;;11.05;2.45;;;;;;;32.23;26.76;93286.72;2069043;69;20600;-73
2023/10/11 10:33:49;;;;;;;8.25;2.38;;;;;;;31.43;26.94;93284.59;2072544;69;20501;-75
2023/10/11 10:36:21;;;;;;;10.23;2.00;;;;;;;31.30;26.49;93277.44;2072368;69;20206;-75
2023/10/11 10:39:46;;;;;;;7.50;2.60;;;;;;;32.84;25.75;93274.28;2072586;69;20139;-75
2023/10/11 10:42:16;;;;;;;9.93;2.40;;;;;;;33.55;24.02;93273.25;2070403;69;20155;-74
2023/10/11 10:44:50;;;;;;;10.95;2.25;;;;;;;33.30;24.89;93280.91;2072598;69;20145;-75
2023/10/11 10:47:28;;;;;;;11.90;2.40;;;;;;;33.75;25.37;93277.28;2069029;69;20141;-73
2023/10/11 10:49:56;;;;;;;9.00;2.28;;;;;;;35.95;24.00;93268.88;2068887;69;20173;-74
2023/10/11 10:52:32;;;;;;;7.63;2.20;;;;;;;36.66;22.63;93272.81;2071682;69;20152;-76
2023/10/11 10:55:05;;;;;;;7.57;2.10;;;;;;;37.82;22.61;93268.47;2068692;69;20701;-73
2023/10/11 10:57:36;;;;;;;10.13;2.40;;;;;;;37.17;23.63;93255.91;2072118;69;20151;-74
2023/10/11 11:00:21;;;;;;;7.93;2.20;;;;;;;37.74;20.63;93251.84;2071603;69;20148;-76
2023/10/11 11:02:47;;;;;;;6.63;2.10;;;;;;;40.14;20.32;93250.84;2071792;69;20178;-76
2023/10/11 11:05:16;;;;;;;8.23;2.10;;;;;;;40.97;19.69;93248.66;2071698;69;20164;-76
2023/10/11 11:07:48;;;;;;;7.38;1.90;;;;;;;40.89;19.80;93249.72;2071919;69;20171;-75
2023/10/11 11:10:19;;;;;;;6.68;1.92;;;;;;;40.37;20.15;93243.97;2072104;69;20209;-76
2023/10/11 11:12:44;;;;;;;9.87;2.67;;;;;;;39.83;19.58;93241.84;2068678;69;20137;-75
2023/10/11 11:15:13;;;;;;;7.38;2.08;;;;;;;41.84;19.00;93240.09;2072291;69;20264;-76
2023/10/11 11:17:49;;;;;;;6.20;2.22;;;;;;;41.01;18.62;93224.88;2068812;69;20247;-77
2023/10/11 11:20:27;;;;;;;5.30;2.10;;;;;;;41.98;18.38;93221.63;2068912;69;20241;-76
2023/10/11 11:22:53;;;;;;;11.32;2.00;;;;;;;44.59;16.48;93221.91;2072203;69;20141;-76
2023/10/11 11:25:27;;;;;;;8.77;1.95;;;;;;;42.48;16.92;93219.81;2072041;69;20148;-77
2023/10/11 11:28:17;;;;;;;8.07;2.05;;;;;;;41.99;19.45;93204.59;2066258;69;20247;-78
2023/10/11 11:31:13;;;;;;;8.95;2.20;;;;;;;45.05;15.60;93216.91;2072604;69;20615;-76
2023/10/11 11:33:49;;;;;;;9.45;1.77;;;;;;;46.35;15.77;93211.31;2072786;69;20258;-75
2023/10/11 11:36:31;;;;;;;7.13;1.90;;;;;;;47.81;14.77;93205.41;2072770;69;20140;-75
2023/10/11 11:41:47;;;;;;;6.97;1.80;;;;;;;47.03;15.20;93200.69;2073211;69;20140;-75
2023/10/11 11:44:27;;;;;;;7.50;2.30;;;;;;;49.90;14.99;93204.78;2073104;69;20128;-75
2023/10/11 11:46:56;;;;;;;6.57;2.20;;;;;;;47.03;14.14;93188.75;2069895;69;20140;-76
2023/10/11 11:49:26;;;;;;;9.32;2.05;;;;;;;47.32;14.57;93184.44;2072988;69;20136;-75
2023/10/11 11:51:55;;;;;;;7.47;1.80;;;;;;;48.38;14.05;93176.53;2073128;69;20128;-75
2023/10/11 11:54:27;;;;;;;8.65;1.92;;;;;;;48.21;13.34;93164.41;2069292;69;20195;-77
2023/10/11 11:56:54;;;;;;;6.00;2.28;;;;;;;47.26;13.37;93161.03;2073138;69;20181;-78
2023/10/11 11:59:21;;;;;;;11.43;2.22;;;;;;;51.61;12.64;93171.28;2073080;69;20237;-79
2023/10/11 12:01:59;;;;;;;6.28;1.83;;;;;;;52.82;13.18;93167.53;2072758;69;20228;-80
2023/10/11 12:04:29;;;;;;;13.60;2.10;;;;;;;53.50;12.31;93152.00;2072804;69;20168;-80
2023/10/11 12:07:00;;;;;;;5.35;1.77;;;;;;;51.25;12.03;93154.28;2072709;69;20221;-75
2023/10/11 12:09:32;;;;;;;7.40;1.85;;;;;;;51.93;13.30;93148.91;2072586;69;20144;-77
2023/10/11 12:12:03;;;;;;;5.65;1.48;;;;;;;52.63;12.30;93140.84;2072670;69;20113;-76
2023/10/11 12:14:30;;;;;;;6.70;2.00;;;;;;;51.88;11.55;93133.59;2072774;69;20233;-76
2023/10/11 12:16:56;;;;;;;7.63;1.73;;;;;;;51.61;13.12;93129.28;2072769;69;20144;-75
2023/10/11 12:19:22;;;;;;;12.65;2.08;;;;;;;51.77;11.70;93115.78;2072466;69;20152;-76
2023/10/11 12:21:51;;;;;;;5.65;1.80;;;;;;;50.59;12.17;93111.38;2072767;69;20151;-77
2023/10/11 12:24:16;;;;;;;7.45;2.00;;;;;;;52.21;12.16;93115.56;2069456;69;20132;-76
2023/10/11 12:26:43;;;;;;;5.80;1.80;;;;;;;52.38;12.19;93108.72;2072762;69;20224;-77
2023/10/11 12:29:12;;;;;;;5.47;1.70;;;;;;;52.27;12.34;93112.66;2072570;69;20132;-76
2023/10/11 12:31:41;;;;;;;7.10;1.98;;;;;;;52.17;12.47;93104.59;2069370;69;20136;-76
2023/10/11 12:34:11;;;;;;;7.53;1.90;;;;;;;54.36;11.96;93107.31;2072642;69;20152;-76
2023/10/11 12:36:45;;;;;;;8.38;1.80;;;;;;;53.03;13.46;93096.47;2072371;69;20178;-76
2023/10/11 12:39:20;;;;;;;6.18;1.95;;;;;;;52.85;11.44;93086.91;2072372;69;20224;-75
2023/10/11 12:41:50;;;;;;;4.72;1.60;;;;;;;51.47;11.74;93085.59;2069023;69;20156;-77